sensor_id;sensor_type;location;lat;lon;timestamp;P1;durP1;ratioP1;P2;durP2;ratioP2
20749;SDS011;10535;50.664;4.564;2022-08-23T00:02:06;1.77;;;1.53;;
20749;SDS011;10535;50.664;4.564;2022-08-23T00:04:35;3.53;;;1.90;;
20749;SDS011;10535;50.664;4.564;2022-08-23T00:07:05;5.90;;;2.10;;
20749;SDS011;10535;50.664;4.564;2022-08-23T00:09:32;5.63;;;2.07;;
20749;SDS011;10535;50.664;4.564;2022-08-23T00:14:31;2.40;;;1.97;;
20749;SDS011;10535;50.664;4.564;2022-08-23T00:17:00;3.57;;;2.00;;
20749;SDS011;10535;50.664;4.564;2022-08-23T00:19:26;2.67;;;1.70;;
20749;SDS011;10535;50.664;4.564;2022-08-23T00:21:52;4.20;;;2.03;;
20749;SDS011;10535;50.664;4.564;2022-08-23T00:24:20;2.33;;;1.70;;
20749;SDS011;10535;50.664;4.564;2022-08-23T00:29:30;2.73;;;2.03;;
20749;SDS011;10535;50.664;4.564;2022-08-23T00:31:59;3.90;;;2.03;;
20749;SDS011;10535;50.664;4.564;2022-08-23T00:34:26;3.97;;;1.77;;
20749;SDS011;10535;50.664;4.564;2022-08-23T00:36:52;3.20;;;2.20;;
20749;SDS011;10535;50.664;4.564;2022-08-23T00:39:19;7.80;;;2.37;;
20749;SDS011;10535;50.664;4.564;2022-08-23T00:41:46;2.27;;;2.00;;
20749;SDS011;10535;50.664;4.564;2022-08-23T00:44:34;3.83;;;2.00;;
20749;SDS011;10535;50.664;4.564;2022-08-23T00:47:17;5.53;;;2.13;;
20749;SDS011;10535;50.664;4.564;2022-08-23T00:52:59;2.60;;;2.00;;
20749;SDS011;10535;50.664;4.564;2022-08-23T00:55:27;5.77;;;2.27;;
20749;SDS011;10535;50.664;4.564;2022-08-23T00:57:53;3.63;;;2.07;;
20749;SDS011;10535;50.664;4.564;2022-08-23T01:00:19;3.67;;;1.90;;
20749;SDS011;10535;50.664;4.564;2022-08-23T01:02:45;2.87;;;1.90;;
20749;SDS011;10535;50.664;4.564;2022-08-23T01:05:14;2.77;;;1.80;;
20749;SDS011;10535;50.664;4.564;2022-08-23T01:07:43;2.50;;;1.93;;
20749;SDS011;10535;50.664;4.564;2022-08-23T01:10:24;2.43;;;1.87;;
20749;SDS011;10535;50.664;4.564;2022-08-23T01:12:58;2.83;;;1.80;;
20749;SDS011;10535;50.664;4.564;2022-08-23T01:15:34;3.43;;;2.00;;
20749;SDS011;10535;50.664;4.564;2022-08-23T01:18:21;3.67;;;2.17;;
20749;SDS011;10535;50.664;4.564;2022-08-23T01:20:52;4.70;;;1.90;;
20749;SDS011;10535;50.664;4.564;2022-08-23T01:23:42;4.90;;;1.87;;
20749;SDS011;10535;50.664;4.564;2022-08-23T01:26:13;5.33;;;2.20;;
20749;SDS011;10535;50.664;4.564;2022-08-23T01:28:41;5.63;;;2.00;;
20749;SDS011;10535;50.664;4.564;2022-08-23T01:31:08;5.03;;;1.67;;
20749;SDS011;10535;50.664;4.564;2022-08-23T01:33:35;4.17;;;2.20;;
20749;SDS011;10535;50.664;4.564;2022-08-23T01:36:02;2.30;;;1.63;;
20749;SDS011;10535;50.664;4.564;2022-08-23T01:38:29;2.93;;;2.00;;
20749;SDS011;10535;50.664;4.564;2022-08-23T01:40:55;3.57;;;1.90;;
20749;SDS011;10535;50.664;4.564;2022-08-23T01:43:21;2.77;;;2.07;;
20749;SDS011;10535;50.664;4.564;2022-08-23T01:45:48;7.23;;;2.20;;
20749;SDS011;10535;50.664;4.564;2022-08-23T01:48:15;2.87;;;2.10;;
20749;SDS011;10535;50.664;4.564;2022-08-23T01:50:41;6.80;;;2.83;;
20749;SDS011;10535;50.664;4.564;2022-08-23T01:53:08;4.50;;;1.80;;
20749;SDS011;10535;50.664;4.564;2022-08-23T01:55:34;3.23;;;2.37;;
20749;SDS011;10535;50.664;4.564;2022-08-23T01:58:04;2.73;;;2.30;;
20749;SDS011;10535;50.664;4.564;2022-08-23T02:00:33;3.90;;;2.00;;
20749;SDS011;10535;50.664;4.564;2022-08-23T02:03:01;3.33;;;2.17;;
20749;SDS011;10535;50.664;4.564;2022-08-23T02:05:27;4.97;;;1.97;;
20749;SDS011;10535;50.664;4.564;2022-08-23T02:07:53;3.77;;;1.83;;
20749;SDS011;10535;50.664;4.564;2022-08-23T02:10:19;2.57;;;2.10;;
20749;SDS011;10535;50.664;4.564;2022-08-23T02:12:45;6.43;;;2.73;;
20749;SDS011;10535;50.664;4.564;2022-08-23T02:15:12;2.93;;;2.43;;
20749;SDS011;10535;50.664;4.564;2022-08-23T02:17:39;4.77;;;2.00;;
20749;SDS011;10535;50.664;4.564;2022-08-23T02:20:05;2.97;;;2.07;;
20749;SDS011;10535;50.664;4.564;2022-08-23T02:22:31;4.97;;;2.23;;
20749;SDS011;10535;50.664;4.564;2022-08-23T02:24:58;2.67;;;1.90;;
20749;SDS011;10535;50.664;4.564;2022-08-23T02:27:24;5.10;;;2.50;;
20749;SDS011;10535;50.664;4.564;2022-08-23T02:29:49;6.80;;;2.43;;
20749;SDS011;10535;50.664;4.564;2022-08-23T02:32:16;3.87;;;2.13;;
20749;SDS011;10535;50.664;4.564;2022-08-23T02:34:43;9.47;;;2.60;;
20749;SDS011;10535;50.664;4.564;2022-08-23T02:37:10;5.07;;;2.80;;
20749;SDS011;10535;50.664;4.564;2022-08-23T02:39:38;4.00;;;2.53;;
20749;SDS011;10535;50.664;4.564;2022-08-23T02:42:05;7.20;;;2.27;;
20749;SDS011;10535;50.664;4.564;2022-08-23T02:44:31;2.67;;;2.10;;
20749;SDS011;10535;50.664;4.564;2022-08-23T02:46:58;3.30;;;2.50;;
20749;SDS011;10535;50.664;4.564;2022-08-23T02:49:25;4.53;;;2.77;;
20749;SDS011;10535;50.664;4.564;2022-08-23T02:51:51;5.40;;;2.43;;
20749;SDS011;10535;50.664;4.564;2022-08-23T02:54:17;3.37;;;2.70;;
20749;SDS011;10535;50.664;4.564;2022-08-23T02:56:43;5.83;;;2.67;;
20749;SDS011;10535;50.664;4.564;2022-08-23T02:59:09;5.33;;;3.10;;
20749;SDS011;10535;50.664;4.564;2022-08-23T03:01:35;4.60;;;2.30;;
20749;SDS011;10535;50.664;4.564;2022-08-23T03:04:03;6.03;;;2.60;;
20749;SDS011;10535;50.664;4.564;2022-08-23T03:06:30;7.37;;;2.50;;
20749;SDS011;10535;50.664;4.564;2022-08-23T03:08:56;7.43;;;2.93;;
20749;SDS011;10535;50.664;4.564;2022-08-23T03:11:22;4.10;;;2.07;;
20749;SDS011;10535;50.664;4.564;2022-08-23T03:13:49;5.93;;;2.93;;
20749;SDS011;10535;50.664;4.564;2022-08-23T03:16:16;9.67;;;3.10;;
20749;SDS011;10535;50.664;4.564;2022-08-23T03:18:43;4.80;;;2.43;;
20749;SDS011;10535;50.664;4.564;2022-08-23T03:21:10;5.93;;;2.67;;
20749;SDS011;10535;50.664;4.564;2022-08-23T03:23:36;6.97;;;2.50;;
20749;SDS011;10535;50.664;4.564;2022-08-23T03:26:04;3.67;;;2.37;;
20749;SDS011;10535;50.664;4.564;2022-08-23T03:28:32;4.60;;;2.60;;
20749;SDS011;10535;50.664;4.564;2022-08-23T03:30:59;5.37;;;2.57;;
20749;SDS011;10535;50.664;4.564;2022-08-23T03:33:25;3.13;;;2.40;;
20749;SDS011;10535;50.664;4.564;2022-08-23T03:35:51;10.77;;;2.77;;
20749;SDS011;10535;50.664;4.564;2022-08-23T03:38:17;6.70;;;2.73;;
20749;SDS011;10535;50.664;4.564;2022-08-23T03:40:43;3.57;;;2.67;;
20749;SDS011;10535;50.664;4.564;2022-08-23T03:43:09;6.43;;;2.80;;
20749;SDS011;10535;50.664;4.564;2022-08-23T03:45:35;7.03;;;2.33;;
20749;SDS011;10535;50.664;4.564;2022-08-23T03:48:01;3.57;;;2.47;;
20749;SDS011;10535;50.664;4.564;2022-08-23T03:50:28;4.27;;;2.20;;
20749;SDS011;10535;50.664;4.564;2022-08-23T03:52:54;3.83;;;2.43;;
20749;SDS011;10535;50.664;4.564;2022-08-23T03:55:19;6.33;;;2.50;;
20749;SDS011;10535;50.664;4.564;2022-08-23T03:57:46;9.07;;;3.00;;
20749;SDS011;10535;50.664;4.564;2022-08-23T04:00:13;4.17;;;2.60;;
20749;SDS011;10535;50.664;4.564;2022-08-23T04:02:39;6.03;;;2.87;;
20749;SDS011;10535;50.664;4.564;2022-08-23T04:05:05;8.27;;;3.10;;
20749;SDS011;10535;50.664;4.564;2022-08-23T04:07:35;3.13;;;2.47;;
20749;SDS011;10535;50.664;4.564;2022-08-23T04:10:04;4.27;;;2.73;;
20749;SDS011;10535;50.664;4.564;2022-08-23T04:12:31;7.20;;;2.83;;
20749;SDS011;10535;50.664;4.564;2022-08-23T04:14:57;3.53;;;2.47;;
20749;SDS011;10535;50.664;4.564;2022-08-23T04:17:23;3.93;;;2.63;;
20749;SDS011;10535;50.664;4.564;2022-08-23T04:19:49;4.07;;;2.57;;
20749;SDS011;10535;50.664;4.564;2022-08-23T04:22:16;10.07;;;3.47;;
20749;SDS011;10535;50.664;4.564;2022-08-23T04:24:44;7.00;;;2.93;;
20749;SDS011;10535;50.664;4.564;2022-08-23T04:27:10;3.37;;;2.53;;
20749;SDS011;10535;50.664;4.564;2022-08-23T04:29:37;3.97;;;2.70;;
20749;SDS011;10535;50.664;4.564;2022-08-23T04:32:04;4.50;;;2.57;;
20749;SDS011;10535;50.664;4.564;2022-08-23T04:34:32;6.67;;;3.30;;
20749;SDS011;10535;50.664;4.564;2022-08-23T04:36:58;4.90;;;2.80;;
20749;SDS011;10535;50.664;4.564;2022-08-23T04:39:25;4.70;;;2.67;;
20749;SDS011;10535;50.664;4.564;2022-08-23T04:41:51;6.53;;;3.23;;
20749;SDS011;10535;50.664;4.564;2022-08-23T04:44:36;5.23;;;2.63;;
20749;SDS011;10535;50.664;4.564;2022-08-23T04:47:01;4.67;;;3.00;;
20749;SDS011;10535;50.664;4.564;2022-08-23T04:49:27;7.13;;;2.77;;
20749;SDS011;10535;50.664;4.564;2022-08-23T04:51:53;11.10;;;4.10;;
20749;SDS011;10535;50.664;4.564;2022-08-23T04:54:18;8.10;;;3.43;;
20749;SDS011;10535;50.664;4.564;2022-08-23T04:56:44;7.13;;;3.50;;
20749;SDS011;10535;50.664;4.564;2022-08-23T04:59:10;6.87;;;3.03;;
20749;SDS011;10535;50.664;4.564;2022-08-23T05:01:36;5.10;;;2.90;;
20749;SDS011;10535;50.664;4.564;2022-08-23T05:04:02;9.83;;;3.20;;
20749;SDS011;10535;50.664;4.564;2022-08-23T05:06:28;4.30;;;2.57;;
20749;SDS011;10535;50.664;4.564;2022-08-23T05:08:55;6.30;;;2.80;;
20749;SDS011;10535;50.664;4.564;2022-08-23T05:11:22;5.63;;;3.83;;
20749;SDS011;10535;50.664;4.564;2022-08-23T05:13:48;4.87;;;3.13;;
20749;SDS011;10535;50.664;4.564;2022-08-23T05:16:14;6.27;;;3.07;;
20749;SDS011;10535;50.664;4.564;2022-08-23T05:18:41;4.20;;;2.70;;
20749;SDS011;10535;50.664;4.564;2022-08-23T05:21:07;6.23;;;3.17;;
20749;SDS011;10535;50.664;4.564;2022-08-23T05:23:37;4.37;;;2.77;;
20749;SDS011;10535;50.664;4.564;2022-08-23T05:26:03;6.33;;;3.43;;
20749;SDS011;10535;50.664;4.564;2022-08-23T05:28:32;5.50;;;3.93;;
20749;SDS011;10535;50.664;4.564;2022-08-23T05:31:03;6.10;;;3.53;;
20749;SDS011;10535;50.664;4.564;2022-08-23T05:33:38;6.93;;;2.97;;
20749;SDS011;10535;50.664;4.564;2022-08-23T05:36:05;8.53;;;2.90;;
20749;SDS011;10535;50.664;4.564;2022-08-23T05:38:31;6.37;;;3.30;;
20749;SDS011;10535;50.664;4.564;2022-08-23T05:40:58;5.40;;;3.17;;
20749;SDS011;10535;50.664;4.564;2022-08-23T05:43:26;5.67;;;3.50;;
20749;SDS011;10535;50.664;4.564;2022-08-23T05:48:35;7.93;;;3.57;;
20749;SDS011;10535;50.664;4.564;2022-08-23T05:53:35;10.37;;;4.63;;
20749;SDS011;10535;50.664;4.564;2022-08-23T05:56:13;8.70;;;4.43;;
20749;SDS011;10535;50.664;4.564;2022-08-23T05:58:43;11.17;;;4.83;;
20749;SDS011;10535;50.664;4.564;2022-08-23T06:01:10;14.37;;;5.93;;
20749;SDS011;10535;50.664;4.564;2022-08-23T06:03:37;11.27;;;4.77;;
20749;SDS011;10535;50.664;4.564;2022-08-23T06:06:03;10.37;;;4.80;;
20749;SDS011;10535;50.664;4.564;2022-08-23T06:08:31;14.23;;;5.03;;
20749;SDS011;10535;50.664;4.564;2022-08-23T06:11:02;14.63;;;5.40;;
20749;SDS011;10535;50.664;4.564;2022-08-23T06:13:29;13.73;;;4.90;;
20749;SDS011;10535;50.664;4.564;2022-08-23T06:15:55;13.23;;;5.40;;
20749;SDS011;10535;50.664;4.564;2022-08-23T06:18:25;7.90;;;4.47;;
20749;SDS011;10535;50.664;4.564;2022-08-23T06:21:29;12.70;;;4.30;;
20749;SDS011;10535;50.664;4.564;2022-08-23T06:24:02;14.40;;;5.17;;
20749;SDS011;10535;50.664;4.564;2022-08-23T06:26:31;14.03;;;5.03;;
20749;SDS011;10535;50.664;4.564;2022-08-23T06:29:12;9.57;;;4.43;;
20749;SDS011;10535;50.664;4.564;2022-08-23T06:31:41;9.10;;;3.73;;
20749;SDS011;10535;50.664;4.564;2022-08-23T06:34:29;8.43;;;3.80;;
20749;SDS011;10535;50.664;4.564;2022-08-23T06:37:02;11.10;;;4.73;;
20749;SDS011;10535;50.664;4.564;2022-08-23T06:39:34;9.40;;;4.80;;
20749;SDS011;10535;50.664;4.564;2022-08-23T06:42:07;9.33;;;3.80;;
20749;SDS011;10535;50.664;4.564;2022-08-23T06:44:35;17.60;;;4.30;;
20749;SDS011;10535;50.664;4.564;2022-08-23T06:47:03;9.43;;;3.10;;
20749;SDS011;10535;50.664;4.564;2022-08-23T06:49:30;8.25;;;2.90;;
20749;SDS011;10535;50.664;4.564;2022-08-23T06:51:56;8.73;;;3.38;;
20749;SDS011;10535;50.664;4.564;2022-08-23T06:54:25;6.57;;;3.35;;
20749;SDS011;10535;50.664;4.564;2022-08-23T06:56:53;8.40;;;2.97;;
20749;SDS011;10535;50.664;4.564;2022-08-23T06:59:19;6.57;;;2.72;;
20749;SDS011;10535;50.664;4.564;2022-08-23T07:01:55;8.93;;;2.95;;
20749;SDS011;10535;50.664;4.564;2022-08-23T07:04:22;8.88;;;2.50;;
20749;SDS011;10535;50.664;4.564;2022-08-23T07:07:02;8.55;;;3.47;;
20749;SDS011;10535;50.664;4.564;2022-08-23T07:09:29;11.35;;;3.35;;
20749;SDS011;10535;50.664;4.564;2022-08-23T07:11:55;7.03;;;2.50;;
20749;SDS011;10535;50.664;4.564;2022-08-23T07:14:22;7.28;;;3.03;;
20749;SDS011;10535;50.664;4.564;2022-08-23T07:16:50;5.60;;;2.70;;
20749;SDS011;10535;50.664;4.564;2022-08-23T07:19:21;5.25;;;2.17;;
20749;SDS011;10535;50.664;4.564;2022-08-23T07:21:49;5.15;;;2.30;;
20749;SDS011;10535;50.664;4.564;2022-08-23T07:24:15;4.43;;;2.90;;
20749;SDS011;10535;50.664;4.564;2022-08-23T07:26:42;7.13;;;2.15;;
20749;SDS011;10535;50.664;4.564;2022-08-23T07:29:10;5.18;;;2.22;;
20749;SDS011;10535;50.664;4.564;2022-08-23T07:31:38;3.75;;;1.92;;
20749;SDS011;10535;50.664;4.564;2022-08-23T07:34:06;6.50;;;2.75;;
20749;SDS011;10535;50.664;4.564;2022-08-23T07:36:32;4.82;;;1.77;;
20749;SDS011;10535;50.664;4.564;2022-08-23T07:38:59;3.33;;;1.52;;
20749;SDS011;10535;50.664;4.564;2022-08-23T07:41:26;2.10;;;1.48;;
20749;SDS011;10535;50.664;4.564;2022-08-23T07:43:58;3.03;;;1.48;;
20749;SDS011;10535;50.664;4.564;2022-08-23T07:46:28;2.40;;;1.52;;
20749;SDS011;10535;50.664;4.564;2022-08-23T07:48:55;3.38;;;1.33;;
20749;SDS011;10535;50.664;4.564;2022-08-23T07:51:22;4.35;;;1.83;;
20749;SDS011;10535;50.664;4.564;2022-08-23T07:53:48;4.47;;;1.52;;
20749;SDS011;10535;50.664;4.564;2022-08-23T07:56:15;5.30;;;1.80;;
20749;SDS011;10535;50.664;4.564;2022-08-23T07:58:42;2.95;;;1.30;;
20749;SDS011;10535;50.664;4.564;2022-08-23T08:03:38;2.25;;;1.17;;
20749;SDS011;10535;50.664;4.564;2022-08-23T08:06:08;7.53;;;2.13;;
20749;SDS011;10535;50.664;4.564;2022-08-23T08:08:36;1.27;;;1.17;;
20749;SDS011;10535;50.664;4.564;2022-08-23T08:11:04;3.10;;;1.65;;
20749;SDS011;10535;50.664;4.564;2022-08-23T08:13:30;3.03;;;1.70;;
20749;SDS011;10535;50.664;4.564;2022-08-23T08:15:56;2.53;;;0.98;;
20749;SDS011;10535;50.664;4.564;2022-08-23T08:18:22;1.90;;;0.90;;
20749;SDS011;10535;50.664;4.564;2022-08-23T08:20:47;3.13;;;1.10;;
20749;SDS011;10535;50.664;4.564;2022-08-23T08:23:13;3.85;;;1.13;;
20749;SDS011;10535;50.664;4.564;2022-08-23T08:25:39;1.52;;;0.80;;
20749;SDS011;10535;50.664;4.564;2022-08-23T08:28:04;1.00;;;0.90;;
20749;SDS011;10535;50.664;4.564;2022-08-23T08:30:30;4.70;;;1.02;;
20749;SDS011;10535;50.664;4.564;2022-08-23T08:32:56;1.02;;;0.80;;
20749;SDS011;10535;50.664;4.564;2022-08-23T08:35:21;1.80;;;1.05;;
20749;SDS011;10535;50.664;4.564;2022-08-23T08:37:48;1.88;;;1.30;;
20749;SDS011;10535;50.664;4.564;2022-08-23T08:40:14;2.30;;;1.02;;
20749;SDS011;10535;50.664;4.564;2022-08-23T08:42:52;1.02;;;0.90;;
20749;SDS011;10535;50.664;4.564;2022-08-23T08:45:34;2.13;;;1.00;;
20749;SDS011;10535;50.664;4.564;2022-08-23T08:48:27;2.28;;;1.13;;
20749;SDS011;10535;50.664;4.564;2022-08-23T08:50:58;2.95;;;0.90;;
20749;SDS011;10535;50.664;4.564;2022-08-23T08:53:40;4.03;;;0.95;;
20749;SDS011;10535;50.664;4.564;2022-08-23T08:56:32;1.48;;;0.80;;
20749;SDS011;10535;50.664;4.564;2022-08-23T08:59:00;0.85;;;0.77;;
20749;SDS011;10535;50.664;4.564;2022-08-23T09:01:31;0.65;;;0.55;;
20749;SDS011;10535;50.664;4.564;2022-08-23T09:04:00;1.00;;;0.88;;
20749;SDS011;10535;50.664;4.564;2022-08-23T09:06:27;1.02;;;0.70;;
20749;SDS011;10535;50.664;4.564;2022-08-23T09:14:32;4.47;;;1.65;;
20749;SDS011;10535;50.664;4.564;2022-08-23T09:17:19;2.95;;;1.00;;
20749;SDS011;10535;50.664;4.564;2022-08-23T09:19:45;2.03;;;0.82;;
20749;SDS011;10535;50.664;4.564;2022-08-23T09:22:16;2.55;;;1.13;;
20749;SDS011;10535;50.664;4.564;2022-08-23T09:24:50;1.60;;;0.88;;
20749;SDS011;10535;50.664;4.564;2022-08-23T09:27:16;1.50;;;1.15;;
20749;SDS011;10535;50.664;4.564;2022-08-23T09:29:50;1.67;;;0.70;;
20749;SDS011;10535;50.664;4.564;2022-08-23T09:32:34;2.00;;;1.00;;
20749;SDS011;10535;50.664;4.564;2022-08-23T09:35:13;3.92;;;0.98;;
20749;SDS011;10535;50.664;4.564;2022-08-23T09:37:58;1.83;;;0.93;;
20749;SDS011;10535;50.664;4.564;2022-08-23T09:40:26;1.17;;;0.52;;
20749;SDS011;10535;50.664;4.564;2022-08-23T09:43:10;1.13;;;0.80;;
20749;SDS011;10535;50.664;4.564;2022-08-23T09:48:14;0.50;;;0.50;;
20749;SDS011;10535;50.664;4.564;2022-08-23T09:51:11;0.63;;;0.60;;
20749;SDS011;10535;50.664;4.564;2022-08-23T09:53:41;0.75;;;0.50;;
20749;SDS011;10535;50.664;4.564;2022-08-23T09:56:16;2.17;;;0.50;;
20749;SDS011;10535;50.664;4.564;2022-08-23T09:58:49;1.77;;;0.85;;
20749;SDS011;10535;50.664;4.564;2022-08-23T10:01:19;3.03;;;0.50;;
20749;SDS011;10535;50.664;4.564;2022-08-23T10:06:33;0.70;;;0.57;;
20749;SDS011;10535;50.664;4.564;2022-08-23T10:08:59;2.05;;;0.55;;
20749;SDS011;10535;50.664;4.564;2022-08-23T10:11:31;2.40;;;1.00;;
20749;SDS011;10535;50.664;4.564;2022-08-23T10:14:02;0.90;;;0.70;;
20749;SDS011;10535;50.664;4.564;2022-08-23T10:22:00;1.65;;;0.63;;
20749;SDS011;10535;50.664;4.564;2022-08-23T10:24:41;0.57;;;0.57;;
20749;SDS011;10535;50.664;4.564;2022-08-23T10:30:15;1.55;;;0.70;;
20749;SDS011;10535;50.664;4.564;2022-08-23T10:35:25;0.68;;;0.60;;
20749;SDS011;10535;50.664;4.564;2022-08-23T10:40:43;1.65;;;0.90;;
20749;SDS011;10535;50.664;4.564;2022-08-23T10:43:26;0.60;;;0.60;;
20749;SDS011;10535;50.664;4.564;2022-08-23T10:46:06;1.08;;;0.60;;
20749;SDS011;10535;50.664;4.564;2022-08-23T10:48:53;1.98;;;1.08;;
20749;SDS011;10535;50.664;4.564;2022-08-23T10:51:25;1.90;;;0.90;;
20749;SDS011;10535;50.664;4.564;2022-08-23T10:57:00;2.15;;;1.27;;
20749;SDS011;10535;50.664;4.564;2022-08-23T10:59:28;4.20;;;0.75;;
20749;SDS011;10535;50.664;4.564;2022-08-23T11:01:59;1.95;;;1.00;;
20749;SDS011;10535;50.664;4.564;2022-08-23T11:05:17;4.85;;;1.08;;
20749;SDS011;10535;50.664;4.564;2022-08-23T11:08:03;3.08;;;1.00;;
20749;SDS011;10535;50.664;4.564;2022-08-23T11:31:33;1.00;;;0.30;;
20749;SDS011;10535;50.664;4.564;2022-08-23T11:34:06;2.45;;;0.52;;
20749;SDS011;10535;50.664;4.564;2022-08-23T11:42:31;0.50;;;0.50;;
20749;SDS011;10535;50.664;4.564;2022-08-23T11:51:20;0.50;;;0.50;;
20749;SDS011;10535;50.664;4.564;2022-08-23T12:01:40;1.08;;;0.65;;
20749;SDS011;10535;50.664;4.564;2022-08-23T12:07:02;0.40;;;0.40;;
20749;SDS011;10535;50.664;4.564;2022-08-23T12:12:08;1.33;;;0.40;;
20749;SDS011;10535;50.664;4.564;2022-08-23T12:22:15;1.63;;;0.30;;
20749;SDS011;10535;50.664;4.564;2022-08-23T12:24:55;0.40;;;0.40;;
20749;SDS011;10535;50.664;4.564;2022-08-23T12:30:10;0.52;;;0.28;;
20749;SDS011;10535;50.664;4.564;2022-08-23T12:32:58;0.30;;;0.30;;
20749;SDS011;10535;50.664;4.564;2022-08-23T12:40:58;0.30;;;0.30;;
20749;SDS011;10535;50.664;4.564;2022-08-23T12:43:55;0.22;;;0.22;;
20749;SDS011;10535;50.664;4.564;2022-08-23T12:46:33;0.30;;;0.30;;
20749;SDS011;10535;50.664;4.564;2022-08-23T12:48:59;0.90;;;0.40;;
20749;SDS011;10535;50.664;4.564;2022-08-23T12:51:25;0.13;;;0.13;;
20749;SDS011;10535;50.664;4.564;2022-08-23T12:53:51;0.30;;;0.30;;
20749;SDS011;10535;50.664;4.564;2022-08-23T12:56:18;0.35;;;0.35;;
20749;SDS011;10535;50.664;4.564;2022-08-23T12:58:51;0.55;;;0.30;;
20749;SDS011;10535;50.664;4.564;2022-08-23T13:01:24;0.20;;;0.20;;
20749;SDS011;10535;50.664;4.564;2022-08-23T13:03:56;0.30;;;0.28;;
20749;SDS011;10535;50.664;4.564;2022-08-23T13:06:45;0.30;;;0.30;;
20749;SDS011;10535;50.664;4.564;2022-08-23T13:09:27;0.90;;;0.73;;
20749;SDS011;10535;50.664;4.564;2022-08-23T13:11:57;0.70;;;0.40;;
20749;SDS011;10535;50.664;4.564;2022-08-23T13:14:25;0.20;;;0.20;;
20749;SDS011;10535;50.664;4.564;2022-08-23T13:17:17;0.43;;;0.32;;
20749;SDS011;10535;50.664;4.564;2022-08-23T13:19:44;3.00;;;0.50;;
20749;SDS011;10535;50.664;4.564;2022-08-23T13:24:38;0.20;;;0.20;;
20749;SDS011;10535;50.664;4.564;2022-08-23T13:27:19;0.65;;;0.40;;
20749;SDS011;10535;50.664;4.564;2022-08-23T13:29:48;1.75;;;0.40;;
20749;SDS011;10535;50.664;4.564;2022-08-23T13:40:38;0.40;;;0.30;;
20749;SDS011;10535;50.664;4.564;2022-08-23T13:43:05;0.25;;;0.20;;
20749;SDS011;10535;50.664;4.564;2022-08-23T13:45:36;1.33;;;0.43;;
20749;SDS011;10535;50.664;4.564;2022-08-23T13:48:14;0.47;;;0.30;;
20749;SDS011;10535;50.664;4.564;2022-08-23T13:50:46;0.30;;;0.30;;
20749;SDS011;10535;50.664;4.564;2022-08-23T13:53:13;0.30;;;0.30;;
20749;SDS011;10535;50.664;4.564;2022-08-23T13:55:40;0.50;;;0.28;;
20749;SDS011;10535;50.664;4.564;2022-08-23T13:58:26;0.32;;;0.32;;
20749;SDS011;10535;50.664;4.564;2022-08-23T14:00:55;0.77;;;0.40;;
20749;SDS011;10535;50.664;4.564;2022-08-23T14:03:22;1.00;;;0.50;;
20749;SDS011;10535;50.664;4.564;2022-08-23T14:05:48;0.40;;;0.40;;
20749;SDS011;10535;50.664;4.564;2022-08-23T14:08:14;1.10;;;0.47;;
20749;SDS011;10535;50.664;4.564;2022-08-23T14:10:40;0.50;;;0.50;;
20749;SDS011;10535;50.664;4.564;2022-08-23T14:13:06;1.63;;;0.47;;
20749;SDS011;10535;50.664;4.564;2022-08-23T14:15:34;1.08;;;0.35;;
20749;SDS011;10535;50.664;4.564;2022-08-23T14:18:01;0.40;;;0.35;;
20749;SDS011;10535;50.664;4.564;2022-08-23T14:20:28;1.88;;;0.50;;
20749;SDS011;10535;50.664;4.564;2022-08-23T14:22:54;0.32;;;0.30;;
20749;SDS011;10535;50.664;4.564;2022-08-23T14:25:20;0.30;;;0.30;;
20749;SDS011;10535;50.664;4.564;2022-08-23T14:27:46;0.45;;;0.45;;
20749;SDS011;10535;50.664;4.564;2022-08-23T14:30:33;0.80;;;0.30;;
20749;SDS011;10535;50.664;4.564;2022-08-23T14:33:00;0.40;;;0.40;;
20749;SDS011;10535;50.664;4.564;2022-08-23T14:35:27;1.52;;;0.32;;
20749;SDS011;10535;50.664;4.564;2022-08-23T14:37:52;0.40;;;0.40;;
20749;SDS011;10535;50.664;4.564;2022-08-23T14:40:18;0.80;;;0.40;;
20749;SDS011;10535;50.664;4.564;2022-08-23T14:42:45;0.30;;;0.30;;
20749;SDS011;10535;50.664;4.564;2022-08-23T14:45:11;0.30;;;0.28;;
20749;SDS011;10535;50.664;4.564;2022-08-23T14:47:38;0.40;;;0.40;;
20749;SDS011;10535;50.664;4.564;2022-08-23T14:50:04;0.30;;;0.30;;
20749;SDS011;10535;50.664;4.564;2022-08-23T14:52:31;0.50;;;0.47;;
20749;SDS011;10535;50.664;4.564;2022-08-23T14:54:57;1.38;;;0.50;;
20749;SDS011;10535;50.664;4.564;2022-08-23T14:57:23;0.50;;;0.40;;
20749;SDS011;10535;50.664;4.564;2022-08-23T14:59:49;0.38;;;0.38;;
20749;SDS011;10535;50.664;4.564;2022-08-23T15:02:15;0.40;;;0.40;;
20749;SDS011;10535;50.664;4.564;2022-08-23T15:04:46;0.68;;;0.50;;
20749;SDS011;10535;50.664;4.564;2022-08-23T15:07:12;0.93;;;0.30;;
20749;SDS011;10535;50.664;4.564;2022-08-23T15:09:39;0.77;;;0.50;;
20749;SDS011;10535;50.664;4.564;2022-08-23T15:12:06;1.05;;;0.30;;
20749;SDS011;10535;50.664;4.564;2022-08-23T15:14:32;0.30;;;0.30;;
20749;SDS011;10535;50.664;4.564;2022-08-23T15:16:58;0.43;;;0.30;;
20749;SDS011;10535;50.664;4.564;2022-08-23T15:19:24;0.20;;;0.20;;
20749;SDS011;10535;50.664;4.564;2022-08-23T15:21:50;0.30;;;0.30;;
20749;SDS011;10535;50.664;4.564;2022-08-23T15:24:16;0.68;;;0.40;;
20749;SDS011;10535;50.664;4.564;2022-08-23T15:26:41;0.20;;;0.20;;
20749;SDS011;10535;50.664;4.564;2022-08-23T15:29:07;0.20;;;0.20;;
20749;SDS011;10535;50.664;4.564;2022-08-23T15:31:33;1.30;;;0.20;;
20749;SDS011;10535;50.664;4.564;2022-08-23T15:33:58;0.40;;;0.20;;
20749;SDS011;10535;50.664;4.564;2022-08-23T15:36:24;0.90;;;0.30;;
20749;SDS011;10535;50.664;4.564;2022-08-23T15:38:51;0.40;;;0.32;;
20749;SDS011;10535;50.664;4.564;2022-08-23T15:41:18;0.20;;;0.20;;
20749;SDS011;10535;50.664;4.564;2022-08-23T15:43:44;0.60;;;0.40;;
20749;SDS011;10535;50.664;4.564;2022-08-23T15:46:11;0.55;;;0.40;;
20749;SDS011;10535;50.664;4.564;2022-08-23T15:48:43;0.30;;;0.30;;
20749;SDS011;10535;50.664;4.564;2022-08-23T15:51:12;0.55;;;0.38;;
20749;SDS011;10535;50.664;4.564;2022-08-23T15:53:39;0.40;;;0.40;;
20749;SDS011;10535;50.664;4.564;2022-08-23T15:56:10;0.45;;;0.30;;
20749;SDS011;10535;50.664;4.564;2022-08-23T15:58:42;0.30;;;0.30;;
20749;SDS011;10535;50.664;4.564;2022-08-23T16:01:08;0.57;;;0.32;;
20749;SDS011;10535;50.664;4.564;2022-08-23T16:03:35;1.00;;;0.43;;
20749;SDS011;10535;50.664;4.564;2022-08-23T16:06:02;2.05;;;0.65;;
20749;SDS011;10535;50.664;4.564;2022-08-23T16:08:32;0.52;;;0.52;;
20749;SDS011;10535;50.664;4.564;2022-08-23T16:11:01;0.73;;;0.40;;
20749;SDS011;10535;50.664;4.564;2022-08-23T16:13:29;0.40;;;0.28;;
20749;SDS011;10535;50.664;4.564;2022-08-23T16:15:54;0.52;;;0.30;;
20749;SDS011;10535;50.664;4.564;2022-08-23T16:18:21;0.52;;;0.40;;
20749;SDS011;10535;50.664;4.564;2022-08-23T16:20:47;0.52;;;0.50;;
20749;SDS011;10535;50.664;4.564;2022-08-23T16:23:13;0.43;;;0.43;;
20749;SDS011;10535;50.664;4.564;2022-08-23T16:25:40;0.52;;;0.50;;
20749;SDS011;10535;50.664;4.564;2022-08-23T16:28:06;0.63;;;0.32;;
20749;SDS011;10535;50.664;4.564;2022-08-23T16:30:32;1.63;;;0.50;;
20749;SDS011;10535;50.664;4.564;2022-08-23T16:32:59;0.43;;;0.40;;
20749;SDS011;10535;50.664;4.564;2022-08-23T16:35:24;0.22;;;0.22;;
20749;SDS011;10535;50.664;4.564;2022-08-23T16:37:50;1.67;;;0.32;;
20749;SDS011;10535;50.664;4.564;2022-08-23T16:40:18;0.43;;;0.43;;
20749;SDS011;10535;50.664;4.564;2022-08-23T16:42:44;0.63;;;0.32;;
20749;SDS011;10535;50.664;4.564;2022-08-23T16:45:10;0.95;;;0.30;;
20749;SDS011;10535;50.664;4.564;2022-08-23T16:47:39;0.30;;;0.30;;
20749;SDS011;10535;50.664;4.564;2022-08-23T16:50:07;0.30;;;0.30;;
20749;SDS011;10535;50.664;4.564;2022-08-23T16:52:34;0.22;;;0.22;;
20749;SDS011;10535;50.664;4.564;2022-08-23T16:55:00;0.52;;;0.40;;
20749;SDS011;10535;50.664;4.564;2022-08-23T16:57:29;1.20;;;0.30;;
20749;SDS011;10535;50.664;4.564;2022-08-23T16:59:54;0.50;;;0.50;;